createdAt,value
2019-06-07T06:00:28.426Z,72.85
2019-06-07T06:01:53.392Z,72.14
2019-06-07T06:02:29.381Z,72.25
2019-06-07T06:03:28.390Z,71.33
2019-06-07T06:04:28.532Z,71.94
2019-06-07T06:05:34.367Z,71.44
2019-06-07T06:06:29.338Z,71.33
2019-06-07T06:07:28.397Z,71.40
2019-06-07T06:08:28.319Z,71.00
2019-06-07T06:09:28.305Z,70.89
2019-06-07T06:10:28.298Z,70.48
2019-06-07T06:11:43.098Z,70.39
2019-06-07T06:12:35.318Z,70.52
2019-06-07T06:13:29.260Z,70.52
2019-06-07T06:14:28.257Z,70.72
2019-06-07T06:15:42.474Z,70.92
2019-06-07T06:16:29.271Z,71.40
2019-06-07T06:17:28.239Z,70.92
2019-06-07T06:18:28.254Z,71.03
2019-06-07T06:19:28.196Z,70.83
2019-06-07T06:20:33.221Z,70.59
2019-06-07T06:21:29.233Z,70.83
2019-06-07T06:22:28.175Z,70.11
2019-06-07T06:23:28.157Z,70.83
2019-06-07T06:24:28.143Z,70.83
2019-06-07T06:25:32.611Z,71.03
2019-06-07T06:26:29.150Z,70.42
2019-06-07T06:28:03.379Z,70.55
2019-06-07T06:28:29.100Z,70.72
2019-06-07T06:29:28.113Z,71.06
2019-06-07T06:30:28.084Z,71.26
2019-06-07T06:31:28.167Z,71.16
2019-06-07T06:32:41.657Z,71.13
2019-06-07T06:33:34.522Z,71.60
2019-06-07T06:34:29.046Z,70.92
2019-06-07T06:35:28.031Z,70.83
2019-06-07T06:36:28.075Z,70.39
2019-06-07T06:37:28.014Z,71.00
2019-06-07T06:38:28.022Z,69.68
2019-06-07T06:39:27.985Z,70.08
2019-06-07T06:40:27.975Z,69.78
2019-06-07T06:41:27.984Z,69.78
2019-06-07T06:42:27.948Z,69.95
2019-06-07T06:43:27.980Z,69.57
2019-06-07T06:44:27.928Z,70.25
2019-06-07T06:45:27.916Z,69.84
2019-06-07T06:46:38.715Z,69.64
2019-06-07T06:47:28.899Z,69.00
2019-06-07T06:48:27.924Z,68.43
2019-06-07T06:49:27.879Z,68.60
2019-06-07T06:50:27.864Z,68.70
2019-06-07T06:51:27.854Z,68.29
2019-06-07T06:52:27.843Z,68.09
2019-06-07T06:53:27.854Z,68.29
2019-06-07T06:54:40.248Z,67.28
2019-06-07T06:55:28.856Z,67.48
2019-06-07T06:56:27.821Z,66.97
2019-06-07T06:57:27.967Z,67.18
2019-06-07T06:58:27.800Z,67.58
2019-06-07T06:59:38.802Z,66.54
2019-06-07T07:00:43.489Z,66.54
2019-06-07T07:01:28.749Z,66.84
2019-06-07T07:02:27.778Z,66.84
2019-06-07T07:04:03.991Z,66.74
2019-06-07T07:04:28.722Z,67.14
2019-06-07T07:05:27.711Z,66.24
2019-06-07T07:06:27.699Z,66.84
2019-06-07T07:07:27.744Z,66.74
2019-06-07T07:08:27.700Z,66.47
2019-06-07T07:09:27.666Z,66.64
2019-06-07T07:10:27.671Z,66.64
2019-06-07T07:11:27.651Z,66.84
2019-06-07T07:12:27.631Z,66.74
2019-06-07T07:13:27.682Z,66.61
2019-06-07T07:14:27.701Z,66.20
2019-06-07T07:15:27.601Z,66.30
2019-06-07T07:16:27.590Z,65.29
2019-06-07T07:17:47.914Z,66.38
2019-06-07T07:18:28.572Z,63.95
2019-06-07T07:19:27.564Z,64.07
2019-06-07T07:20:27.588Z,64.55
2019-06-07T07:21:27.541Z,65.87
2019-06-07T07:22:27.527Z,64.76
2019-06-07T07:23:27.523Z,64.55
2019-06-07T07:24:29.125Z,66.07
2019-06-07T07:25:27.543Z,64.12
2019-06-07T07:26:27.485Z,63.61
2019-06-07T07:27:27.475Z,64.12
2019-06-07T07:28:27.468Z,63.68
2019-06-07T07:29:27.464Z,63.08
2019-06-07T07:30:36.792Z,62.85
2019-06-07T07:31:28.429Z,63.28
2019-06-07T07:32:27.426Z,63.35
2019-06-07T07:34:19.958Z,62.14
2019-06-07T07:34:35.483Z,61.73
2019-06-07T07:35:28.437Z,61.23
2019-06-07T07:36:38.621Z,61.13
2019-06-07T07:37:28.468Z,61.13
2019-06-07T07:38:27.370Z,61.43
2019-06-07T07:39:27.352Z,60.32
2019-06-07T07:41:28.358Z,59.91
2019-06-07T07:42:27.311Z,60.25
2019-06-07T07:43:27.323Z,60.52
2019-06-07T07:44:27.314Z,60.14
2019-06-07T07:45:27.276Z,60.02
2019-06-07T07:46:29.746Z,60.52
2019-06-07T07:47:27.262Z,60.82
2019-06-07T07:48:27.259Z,61.03
2019-06-07T07:49:27.234Z,60.22
2019-06-07T07:50:27.305Z,60.52
2019-06-07T07:51:27.243Z,60.93
2019-06-07T07:52:27.260Z,60.80
2019-06-07T07:53:45.360Z,60.89
2019-06-07T07:54:28.186Z,59.69
2019-06-07T07:55:27.327Z,60.09
2019-06-07T07:56:27.160Z,60.26
2019-06-07T07:57:27.176Z,59.25
2019-06-07T07:58:27.184Z,59.35
2019-06-07T07:59:41.156Z,59.78
2019-06-07T08:01:28.133Z,59.96
2019-06-07T08:02:27.097Z,59.25
2019-06-07T08:03:27.102Z,59.35
2019-06-07T08:05:12.395Z,60.06
2019-06-07T08:05:41.955Z,60.06
2019-06-07T08:06:28.049Z,59.12
2019-06-07T08:07:27.231Z,60.13
2019-06-07T08:08:27.043Z,59.20
2019-06-07T08:09:27.051Z,58.92
2019-06-07T08:10:27.029Z,59.83
2019-06-07T08:11:26.995Z,58.92
2019-06-07T08:12:27.025Z,59.22
2019-06-07T08:13:27.888Z,60.13
2019-06-07T08:14:26.961Z,60.13
2019-06-07T08:15:26.967Z,59.73
2019-06-07T08:16:26.935Z,59.40
2019-06-07T08:17:26.957Z,59.30
2019-06-07T08:18:26.935Z,59.40
2019-06-07T08:19:26.908Z,58.89
2019-06-07T08:20:26.892Z,59.07
2019-06-07T08:21:27.397Z,59.30
2019-06-07T08:22:26.891Z,57.96
2019-06-07T08:23:26.882Z,57.89
2019-06-07T08:24:26.868Z,58.29
2019-06-07T08:25:26.840Z,58.59
2019-06-07T08:26:26.853Z,58.59
2019-06-07T08:27:27.117Z,58.87
2019-06-07T08:28:26.807Z,58.76
2019-06-07T08:29:43.830Z,58.26
2019-06-07T08:31:27.800Z,57.65
2019-06-07T08:32:26.765Z,57.76
2019-06-07T08:33:27.195Z,57.68
2019-06-07T08:34:26.798Z,58.80
2019-06-07T08:36:41.351Z,58.49
2019-06-07T08:38:13.467Z,59.20
2019-06-07T08:38:46.464Z,58.36
2019-06-07T08:39:27.700Z,58.80
2019-06-07T08:40:26.678Z,58.76
2019-06-07T08:41:26.684Z,58.67
2019-06-07T08:42:36.836Z,58.47
2019-06-07T08:43:27.672Z,59.07
2019-06-07T08:44:26.637Z,57.86
2019-06-07T08:45:26.623Z,58.76
2019-06-07T08:46:26.604Z,58.47
2019-06-07T08:47:26.595Z,58.67
2019-06-07T08:48:28.338Z,59.17
2019-06-07T08:49:26.605Z,58.36
2019-06-07T08:50:26.590Z,58.87
2019-06-07T08:51:26.550Z,59.27
2019-06-07T08:52:26.537Z,58.76
2019-06-07T08:53:26.529Z,58.74
2019-06-07T08:54:26.545Z,58.54
2019-06-07T08:55:26.569Z,58.84
2019-06-07T08:56:26.509Z,58.74
2019-06-07T08:57:26.482Z,58.14
2019-06-07T08:58:26.474Z,58.14
2019-06-07T08:59:26.474Z,57.70
2019-06-07T09:00:45.450Z,58.01
2019-06-07T09:01:27.437Z,58.61
2019-06-07T09:02:26.434Z,58.61
2019-06-07T09:03:26.422Z,57.90
2019-06-07T09:04:26.402Z,57.98
2019-06-07T09:05:26.416Z,57.37
2019-06-07T09:07:02.654Z,57.88
2019-06-07T09:07:27.373Z,57.57
2019-06-07T09:08:30.558Z,57.24
2019-06-07T09:09:26.360Z,57.45
2019-06-07T09:10:26.390Z,58.15
2019-06-07T09:11:26.328Z,56.44
2019-06-07T09:12:26.321Z,55.81
2019-06-07T09:13:26.333Z,57.82
2019-06-07T09:14:26.359Z,56.51
2019-06-07T09:15:26.293Z,55.91
2019-06-07T09:16:26.282Z,55.91
2019-06-07T09:17:26.274Z,55.68
2019-06-07T09:18:44.417Z,55.79
2019-06-07T09:19:27.243Z,55.91
2019-06-07T09:20:35.770Z,55.81
2019-06-07T09:21:27.235Z,56.49
2019-06-07T09:22:26.234Z,54.48
2019-06-07T09:23:26.233Z,55.58
2019-06-07T09:24:26.189Z,55.48
2019-06-07T09:25:26.178Z,55.28
2019-06-07T09:26:26.168Z,56.19
2019-06-07T09:27:26.246Z,56.49
2019-06-07T09:28:26.189Z,55.68
2019-06-07T09:29:26.152Z,55.46
2019-06-07T09:30:26.121Z,55.55
2019-06-07T09:31:48.805Z,54.38
2019-06-07T09:32:27.114Z,55.46
2019-06-07T09:33:26.119Z,54.58
2019-06-07T09:34:26.116Z,54.38
2019-06-07T09:35:26.071Z,55.18
2019-06-07T09:36:26.057Z,54.65
2019-06-07T09:38:27.243Z,55.55
2019-06-07T09:39:26.054Z,54.45
2019-06-07T09:40:27.914Z,54.55
2019-06-07T09:41:46.268Z,54.65
2019-06-07T09:42:26.992Z,54.43
2019-06-07T09:44:27.046Z,54.33
2019-06-07T09:45:25.969Z,53.92
2019-06-07T09:46:25.948Z,54.43
2019-06-07T09:47:32.552Z,54.22
2019-06-07T09:49:09.284Z,54.02
2019-06-07T09:49:32.732Z,55.53
2019-06-07T09:50:27.015Z,54.00
2019-06-07T09:51:25.914Z,54.63
2019-06-07T09:52:25.886Z,54.60
2019-06-07T09:53:25.873Z,53.87
2019-06-07T09:55:04.119Z,52.67
2019-06-07T09:55:26.903Z,53.67
2019-06-07T09:56:25.915Z,53.55
2019-06-07T09:57:25.832Z,53.75
2019-06-07T09:59:26.810Z,52.17
2019-06-07T10:00:42.829Z,52.44
2019-06-07T10:01:26.816Z,53.57
2019-06-07T10:02:25.825Z,52.24
2019-06-07T10:03:25.764Z,52.24
2019-06-07T10:04:31.266Z,52.04
2019-06-07T10:05:26.773Z,52.04
2019-06-07T10:06:25.760Z,52.14
2019-06-07T10:07:31.947Z,52.34
2019-06-07T10:09:42.449Z,51.84
2019-06-07T10:10:09.189Z,52.34
2019-06-07T10:11:25.681Z,52.32
2019-06-07T10:12:25.702Z,51.72
2019-06-07T10:13:25.659Z,51.49
2019-06-07T10:14:25.650Z,51.69
2019-06-07T10:15:25.635Z,51.49
2019-06-07T10:16:25.625Z,52.27
2019-06-07T10:17:25.657Z,50.99
2019-06-07T10:18:25.603Z,52.27
2019-06-07T10:19:25.596Z,51.17
2019-06-07T10:20:25.601Z,51.34
2019-06-07T10:21:25.603Z,51.54
2019-06-07T10:22:25.562Z,49.54
2019-06-07T10:23:25.565Z,50.44
2019-06-07T10:24:25.540Z,50.14
2019-06-07T10:25:25.527Z,51.04
2019-06-07T10:26:25.545Z,50.22
2019-06-07T10:27:25.508Z,49.84
2019-06-07T10:28:25.497Z,50.04
2019-06-07T10:29:25.523Z,50.34
2019-06-07T10:30:25.590Z,50.54
2019-06-07T10:31:25.498Z,49.84
2019-06-07T10:32:25.460Z,50.04
2019-06-07T10:33:25.454Z,50.02
2019-06-07T10:34:25.468Z,50.02
2019-06-07T10:35:25.424Z,50.22
2019-06-07T10:36:25.409Z,49.41
2019-06-07T10:37:25.410Z,49.19
2019-06-07T10:38:25.420Z,49.19
2019-06-07T10:39:25.401Z,49.19
2019-06-07T10:40:25.369Z,49.09
2019-06-07T10:41:25.356Z,49.59
2019-06-07T10:42:25.362Z,49.59
2019-06-07T10:43:25.381Z,49.90
2019-06-07T10:44:25.367Z,49.19
2019-06-07T10:45:25.332Z,50.20
2019-06-07T10:46:25.307Z,49.69
2019-06-07T10:47:25.328Z,49.90
2019-06-07T10:48:25.294Z,48.60
2019-06-07T10:49:25.286Z,49.29
2019-06-07T10:50:25.261Z,48.49
2019-06-07T10:51:25.255Z,48.57
2019-06-07T10:52:25.279Z,47.60
2019-06-07T10:53:25.234Z,48.47
2019-06-07T10:54:30.290Z,47.97
2019-06-07T10:55:26.226Z,47.75
2019-06-07T10:56:25.205Z,47.15
2019-06-07T10:57:25.222Z,46.85
2019-06-07T10:58:25.174Z,47.03
2019-06-07T10:59:25.184Z,48.13
2019-06-07T11:00:25.152Z,47.95
2019-06-07T11:01:25.154Z,47.53
2019-06-07T11:02:25.142Z,47.72
2019-06-07T11:03:25.131Z,48.13
2019-06-07T11:04:25.141Z,47.72
2019-06-07T11:05:25.107Z,47.03
2019-06-07T11:06:25.098Z,47.33
2019-06-07T11:07:25.085Z,46.83
2019-06-07T11:08:25.082Z,46.35
2019-06-07T11:09:25.098Z,46.75
2019-06-07T11:10:25.052Z,46.55
2019-06-07T11:11:25.039Z,46.05
2019-06-07T11:12:25.058Z,46.65
2019-06-07T11:13:25.014Z,46.65
2019-06-07T11:14:25.031Z,46.35
2019-06-07T11:15:24.992Z,44.75
2019-06-07T11:16:25.027Z,44.73
2019-06-07T11:17:25.030Z,44.91
2019-06-07T11:18:24.970Z,45.93
2019-06-07T11:19:24.977Z,45.81
2019-06-07T11:20:24.977Z,45.61
2019-06-07T11:21:24.937Z,45.18
2019-06-07T11:22:24.923Z,44.91
2019-06-07T11:23:24.925Z,44.81
2019-06-07T11:24:24.966Z,44.51
2019-06-07T11:25:25.024Z,43.81
2019-06-07T11:26:24.928Z,45.01
2019-06-07T11:27:24.867Z,44.71
2019-06-07T11:28:24.861Z,44.81
2019-06-07T11:29:24.844Z,45.01
2019-06-07T11:30:25.156Z,45.51
2019-06-07T11:31:24.835Z,45.48
2019-06-07T11:32:24.817Z,44.51
2019-06-07T11:33:24.837Z,44.61
2019-06-07T11:34:24.801Z,44.51
2019-06-07T11:35:24.786Z,44.81
2019-06-07T11:36:24.775Z,44.61
2019-06-07T11:37:24.814Z,45.31
2019-06-07T11:38:24.749Z,45.10
2019-06-07T11:39:24.739Z,45.51
2019-06-07T11:40:33.974Z,44.71
2019-06-07T11:41:25.717Z,45.01
2019-06-07T11:42:25.135Z,44.71
2019-06-07T11:43:24.737Z,44.81
2019-06-07T11:44:25.617Z,46.41
2019-06-07T11:45:24.725Z,44.69
2019-06-07T11:46:24.702Z,45.78
2019-06-07T11:47:24.652Z,45.89
2019-06-07T11:48:24.641Z,44.59
2019-06-07T11:49:24.672Z,44.87
2019-06-07T11:50:24.626Z,46.64
2019-06-07T11:51:24.615Z,44.45
2019-06-07T11:52:25.136Z,44.23
2019-06-07T11:53:24.589Z,43.45
2019-06-07T11:54:24.577Z,43.85
2019-06-07T11:55:24.566Z,43.85
2019-06-07T11:56:24.581Z,43.35
2019-06-07T11:57:24.602Z,43.77
2019-06-07T11:58:24.539Z,44.87
2019-06-07T11:59:24.526Z,44.67
2019-06-07T12:00:24.512Z,45.34
2019-06-07T12:01:24.549Z,44.84
2019-06-07T12:02:24.503Z,44.15
2019-06-07T12:03:24.475Z,43.97
2019-06-07T12:04:34.508Z,44.27
2019-06-07T12:05:25.461Z,44.84
2019-06-07T12:06:24.468Z,44.67
2019-06-07T12:07:24.438Z,44.79
2019-06-07T12:08:24.432Z,45.06
2019-06-07T12:09:27.962Z,44.87
2019-06-07T12:10:24.405Z,44.89
2019-06-07T12:11:24.404Z,44.79
2019-06-07T12:12:24.416Z,44.69
2019-06-07T12:13:26.962Z,45.48
2019-06-07T12:14:24.364Z,44.79
2019-06-07T12:15:24.389Z,44.89
2019-06-07T12:16:24.346Z,44.69
2019-06-07T12:17:24.404Z,44.59
2019-06-07T12:18:24.355Z,45.09
2019-06-07T12:19:24.314Z,45.09
2019-06-07T12:20:24.305Z,44.89
2019-06-07T12:21:24.354Z,44.89
2019-06-07T12:22:24.326Z,44.61
2019-06-07T12:23:24.310Z,46.01
2019-06-07T12:24:26.132Z,45.01
2019-06-07T12:25:25.139Z,46.41
2019-06-07T12:26:24.262Z,46.50
2019-06-07T12:27:24.253Z,46.08
2019-06-07T12:28:24.217Z,45.09
2019-06-07T12:29:24.202Z,45.39
2019-06-07T12:30:27.713Z,45.48
2019-06-07T12:31:24.204Z,44.69
2019-06-07T12:32:24.186Z,44.69
2019-06-07T12:33:25.064Z,44.96
2019-06-07T12:34:24.219Z,45.96
2019-06-07T12:35:24.139Z,46.16
2019-06-07T12:36:24.203Z,44.96
2019-06-07T12:37:42.065Z,45.26
2019-06-07T12:38:25.112Z,45.06
2019-06-07T12:39:24.102Z,45.66
2019-06-07T12:40:30.119Z,44.67
2019-06-07T12:41:25.141Z,46.26
2019-06-07T12:42:24.066Z,46.66
2019-06-07T12:43:24.054Z,45.86
2019-06-07T12:44:24.114Z,46.06
2019-06-07T12:45:43.976Z,46.06
2019-06-07T12:46:28.479Z,45.86
2019-06-07T12:47:24.018Z,45.78
2019-06-07T12:48:26.083Z,45.89
2019-06-07T12:49:24.023Z,46.61
2019-06-07T12:50:41.889Z,47.30
2019-06-07T12:51:24.971Z,47.71
2019-06-07T12:52:24.663Z,48.00
2019-06-07T12:53:27.610Z,47.00
2019-06-07T12:54:23.959Z,46.70
2019-06-07T12:55:24.854Z,47.10
2019-06-07T12:56:24.305Z,47.71
2019-06-07T12:57:24.219Z,46.80
2019-06-07T12:58:32.598Z,47.80
2019-06-07T12:59:24.905Z,47.50
2019-06-07T13:00:24.499Z,48.60
2019-06-07T13:01:24.841Z,48.60
2019-06-07T13:02:25.437Z,47.90
2019-06-07T13:03:24.536Z,48.20
2019-06-07T13:04:24.997Z,48.50
2019-06-07T13:05:23.976Z,48.00
2019-06-07T13:06:23.808Z,48.70
2019-06-07T13:07:24.257Z,47.80
2019-06-07T13:08:23.981Z,48.40
2019-06-07T13:09:24.038Z,48.00
2019-06-07T13:10:24.105Z,48.40
2019-06-07T13:11:28.266Z,47.98
2019-06-07T13:12:24.741Z,48.68
2019-06-07T13:13:24.585Z,46.19
2019-06-07T13:14:24.140Z,47.26
2019-06-07T13:15:25.810Z,47.16
2019-06-07T13:16:24.241Z,48.46
2019-06-07T13:17:24.187Z,45.86
2019-06-07T13:18:25.171Z,46.86
2019-06-07T13:19:24.435Z,45.94
2019-06-07T13:20:24.678Z,46.44
2019-06-07T13:21:24.638Z,44.54
2019-06-07T13:22:24.423Z,43.95
2019-06-07T13:23:24.398Z,44.65
2019-06-07T13:24:25.215Z,45.24
2019-06-07T13:25:30.114Z,45.24
2019-06-07T13:26:25.359Z,46.34
2019-06-07T13:27:24.519Z,44.45
2019-06-07T13:28:24.786Z,44.15
2019-06-07T13:29:25.109Z,43.85
2019-06-07T13:30:25.443Z,45.14
2019-06-07T13:31:23.535Z,45.54
2019-06-07T13:32:23.778Z,44.65
2019-06-07T13:33:24.204Z,45.44
2019-06-07T13:34:24.289Z,45.14
2019-06-07T13:35:23.829Z,46.34
2019-06-07T13:36:24.417Z,44.94
2019-06-07T13:37:23.525Z,44.65
2019-06-07T13:38:24.323Z,45.14
2019-06-07T13:39:27.528Z,46.14
2019-06-07T13:40:25.120Z,45.94
2019-06-07T13:41:36.374Z,46.34
2019-06-07T13:42:24.799Z,46.44
2019-06-07T13:43:23.516Z,46.54
2019-06-07T13:44:24.963Z,46.54
2019-06-07T13:45:24.298Z,45.94
2019-06-07T13:46:23.394Z,45.44
2019-06-07T13:47:23.394Z,45.94
2019-06-07T13:48:23.469Z,45.74
2019-06-07T13:49:23.709Z,45.96
2019-06-07T13:50:24.081Z,46.46
2019-06-07T13:51:25.184Z,46.26
2019-06-07T13:52:23.315Z,46.86
2019-06-07T13:53:24.935Z,46.46
2019-06-07T13:54:24.718Z,47.14
2019-06-07T13:55:24.009Z,46.73
2019-06-07T13:56:24.010Z,46.94
2019-06-07T13:57:24.356Z,47.51
2019-06-07T13:58:24.225Z,47.02
2019-06-07T13:59:24.530Z,48.01
2019-06-07T14:00:24.784Z,46.42
2019-06-07T14:01:24.510Z,45.79
2019-06-07T14:02:23.989Z,44.70
2019-06-07T14:03:27.215Z,44.80
2019-06-07T14:04:26.925Z,44.88
2019-06-07T14:05:23.205Z,45.78
2019-06-07T14:06:24.949Z,45.57
2019-06-07T14:07:26.352Z,45.57
2019-06-07T14:08:23.337Z,44.78
2019-06-07T14:09:23.320Z,44.78
2019-06-07T14:10:23.654Z,45.70
2019-06-07T14:11:23.643Z,45.79
2019-06-07T14:12:24.144Z,44.90
2019-06-07T14:13:23.649Z,45.12
2019-06-07T14:14:25.035Z,45.12
2019-06-07T14:15:24.364Z,45.12
2019-06-07T14:16:24.297Z,45.00
2019-06-07T14:17:23.304Z,45.62
2019-06-07T14:18:24.321Z,45.40
2019-06-07T14:19:24.351Z,45.00
2019-06-07T14:20:26.775Z,45.30
2019-06-07T14:21:24.617Z,44.78
2019-06-07T14:22:23.003Z,44.08
2019-06-07T14:23:40.154Z,43.88
2019-06-07T14:24:25.137Z,44.48
2019-06-07T14:25:23.093Z,45.08
2019-06-07T14:26:23.251Z,43.38
2019-06-07T14:27:23.404Z,43.49
2019-06-07T14:28:26.470Z,43.19
2019-06-07T14:29:23.917Z,43.59
2019-06-07T14:30:23.943Z,43.29
2019-06-07T14:31:24.578Z,43.19
2019-06-07T14:32:24.835Z,43.59
2019-06-07T14:33:25.206Z,41.89
2019-06-07T14:34:24.229Z,43.08
2019-06-07T14:35:24.455Z,43.59
2019-06-07T14:36:22.850Z,43.38
2019-06-07T14:37:22.918Z,43.51
2019-06-07T14:38:23.150Z,43.41
2019-06-07T14:39:23.081Z,43.90
2019-06-07T14:40:23.203Z,43.51
2019-06-07T14:41:23.227Z,44.31
2019-06-07T14:42:23.404Z,43.41
2019-06-07T14:43:23.175Z,44.20
2019-06-07T14:44:23.557Z,44.53
2019-06-07T14:45:23.578Z,44.62
2019-06-07T14:46:23.538Z,44.62
2019-06-07T14:47:23.792Z,45.22
2019-06-07T14:48:23.831Z,45.22
2019-06-07T14:49:24.152Z,46.22
2019-06-07T14:50:24.090Z,47.11
2019-06-07T14:51:24.119Z,48.01
2019-06-07T14:52:22.676Z,46.72
2019-06-07T14:53:22.683Z,47.21
2019-06-07T14:54:22.703Z,46.61
2019-06-07T14:55:22.685Z,46.34
2019-06-07T14:56:22.660Z,46.94
2019-06-07T14:57:22.673Z,47.11
2019-06-07T14:58:22.642Z,47.81
2019-06-07T14:59:22.634Z,46.72
2019-06-07T15:00:22.593Z,47.31
2019-06-07T15:01:22.608Z,47.02
2019-06-07T15:02:22.644Z,47.31
2019-06-07T15:03:22.638Z,46.22
2019-06-07T15:04:22.547Z,46.31
2019-06-07T15:05:22.573Z,45.72
2019-06-07T15:06:22.554Z,46.22
2019-06-07T15:07:22.521Z,46.12
2019-06-07T15:08:22.509Z,46.01
2019-06-07T15:09:22.493Z,46.42
2019-06-07T15:10:22.482Z,47.11
2019-06-07T15:11:22.631Z,46.91
2019-06-07T15:12:25.376Z,46.91
2019-06-07T15:13:22.443Z,47.02
2019-06-07T15:14:22.503Z,46.91
2019-06-07T15:15:22.482Z,46.91
2019-06-07T15:16:22.446Z,47.14
2019-06-07T15:17:22.457Z,47.61
2019-06-07T15:18:22.404Z,47.63
2019-06-07T15:19:24.222Z,46.94
2019-06-07T15:20:22.484Z,47.74
2019-06-07T15:21:22.610Z,47.71
2019-06-07T15:22:22.459Z,47.93
2019-06-07T15:23:22.640Z,48.53
2019-06-07T15:24:22.337Z,49.63
2019-06-07T15:25:22.625Z,49.23
2019-06-07T15:26:22.314Z,49.83
2019-06-07T15:27:22.443Z,51.92
2019-06-07T15:28:22.334Z,52.92
2019-06-07T15:29:23.099Z,52.25
2019-06-07T15:30:22.269Z,55.04
2019-06-07T15:31:22.261Z,59.72
2019-06-07T15:32:22.276Z,61.22
2019-06-07T15:33:22.284Z,61.15
2019-06-07T15:34:22.252Z,64.34
2019-06-07T15:35:22.221Z,61.27
2019-06-07T15:36:22.230Z,63.50
2019-06-07T15:37:22.215Z,62.81
2019-06-07T15:38:22.224Z,62.73
2019-06-07T15:39:22.191Z,66.23
2019-06-07T15:40:24.374Z,68.96
2019-06-07T15:41:22.156Z,68.79
2019-06-07T15:42:22.135Z,69.62
2019-06-07T15:43:23.065Z,71.33
2019-06-07T15:44:22.122Z,70.96
2019-06-07T15:45:22.148Z,68.96
2019-06-07T15:46:22.118Z,70.66
2019-06-07T15:47:22.120Z,71.50
2019-06-07T15:48:22.083Z,70.69
2019-06-07T15:49:22.088Z,69.79
2019-06-07T15:50:23.628Z,70.83
2019-06-07T15:51:22.055Z,72.39
2019-06-07T15:52:22.121Z,72.83
2019-06-07T15:53:22.111Z,70.23
2019-06-07T15:54:22.011Z,72.03
2019-06-07T15:55:22.007Z,72.73
2019-06-07T15:56:22.026Z,73.13
2019-06-07T15:57:21.973Z,72.93
2019-06-07T15:58:21.966Z,73.36
2019-06-07T15:59:21.958Z,73.36
2019-06-07T16:00:21.950Z,74.27
2019-06-07T16:01:21.970Z,73.97
2019-06-07T16:02:21.985Z,73.86
2019-06-07T16:03:21.930Z,72.97
2019-06-07T16:04:22.035Z,74.07
2019-06-07T16:05:21.946Z,71.77
2019-06-07T16:06:21.937Z,73.36
2019-06-07T16:07:21.898Z,72.56
2019-06-07T16:08:21.862Z,71.43
2019-06-07T16:09:21.848Z,70.12
2019-06-07T16:10:21.843Z,70.23
2019-06-07T16:11:21.824Z,69.32
2019-06-07T16:12:22.134Z,68.82
2019-06-07T16:13:22.011Z,65.12
2019-06-07T16:14:22.130Z,63.64
2019-06-07T16:15:21.792Z,65.55
2019-06-07T16:16:21.773Z,64.18
2019-06-07T16:17:21.779Z,62.57
2019-06-07T16:18:21.823Z,61.30
2019-06-07T16:19:21.743Z,61.72
2019-06-07T16:20:21.731Z,61.05
2019-06-07T16:21:21.727Z,62.66
2019-06-07T16:22:21.725Z,61.66
2019-06-07T16:23:21.735Z,63.36
2019-06-07T16:24:21.682Z,61.79
2019-06-07T16:25:21.673Z,61.88
2019-06-07T16:26:21.684Z,62.02
2019-06-07T16:27:22.156Z,61.41
2019-06-07T16:28:21.737Z,60.24
2019-06-07T16:29:21.648Z,60.24
2019-06-07T16:30:21.700Z,60.33
2019-06-07T16:31:21.608Z,61.34
2019-06-07T16:32:21.603Z,59.23
2019-06-07T16:33:21.634Z,60.03
2019-06-07T16:34:21.690Z,59.63
2019-06-07T16:35:21.703Z,58.12
2019-06-07T16:36:21.555Z,59.23
2019-06-07T16:37:21.543Z,57.62
2019-06-07T16:38:21.537Z,56.21
2019-06-07T16:39:21.569Z,56.62
2019-06-07T16:40:23.209Z,57.82
2019-06-07T16:41:21.508Z,57.52
2019-06-07T16:42:21.577Z,58.00
2019-06-07T16:43:22.229Z,55.79
2019-06-07T16:44:21.508Z,56.38
2019-06-07T16:45:21.487Z,55.68
2019-06-07T16:46:21.469Z,56.69
2019-06-07T16:47:24.636Z,54.58
2019-06-07T16:48:21.508Z,53.77
2019-06-07T16:49:21.715Z,56.09
2019-06-07T16:50:21.478Z,56.46
2019-06-07T16:51:21.404Z,55.79
2019-06-07T16:52:21.407Z,52.47
2019-06-07T16:53:22.210Z,52.77
2019-06-07T16:54:21.630Z,53.67
2019-06-07T16:55:21.475Z,54.00
2019-06-07T16:56:21.697Z,52.62
2019-06-07T16:57:21.359Z,52.42
2019-06-07T16:58:21.322Z,53.45
2019-06-07T16:59:21.354Z,52.74
2019-06-07T17:00:21.295Z,52.97
2019-06-07T17:01:21.288Z,54.25
2019-06-07T17:02:21.277Z,54.38
2019-06-07T17:03:21.286Z,54.35
2019-06-07T17:04:21.299Z,54.88
2019-06-07T17:05:21.247Z,54.08
2019-06-07T17:06:21.306Z,54.28
2019-06-07T17:07:21.236Z,53.58
2019-06-07T17:08:21.243Z,52.39
2019-06-07T17:09:21.455Z,52.89
2019-06-07T17:10:21.361Z,52.42
2019-06-07T17:11:22.156Z,52.89
2019-06-07T17:12:21.214Z,53.22
2019-06-07T17:13:32.962Z,52.59
2019-06-07T17:14:22.312Z,52.31
2019-06-07T17:15:21.136Z,52.31
2019-06-07T17:16:22.106Z,51.59
2019-06-07T17:17:22.135Z,51.38
2019-06-07T17:18:22.243Z,51.91
2019-06-07T17:19:21.098Z,51.31
2019-06-07T17:20:21.093Z,52.29
2019-06-07T17:21:21.207Z,51.18
2019-06-07T17:22:21.126Z,51.28
2019-06-07T17:23:21.320Z,51.38
2019-06-07T17:24:21.326Z,51.79
2019-06-07T17:25:21.030Z,51.40
2019-06-07T17:26:21.021Z,51.51
2019-06-07T17:27:21.037Z,52.22
2019-06-07T17:28:22.828Z,52.72
2019-06-07T17:29:21.132Z,52.51
2019-06-07T17:30:21.003Z,52.42
2019-06-07T17:31:21.006Z,52.31
2019-06-07T17:32:20.993Z,52.42
2019-06-07T17:33:20.949Z,52.54
2019-06-07T17:34:20.943Z,52.74
2019-06-07T17:35:20.927Z,53.05
2019-06-07T17:36:20.964Z,52.84
2019-06-07T17:37:22.639Z,52.34
2019-06-07T17:38:21.047Z,52.44
2019-06-07T17:39:20.882Z,52.94
2019-06-07T17:40:20.864Z,53.75
2019-06-07T17:41:20.852Z,54.25
2019-06-07T17:42:21.156Z,54.76
2019-06-07T17:43:22.061Z,54.16
2019-06-07T17:44:20.880Z,53.25
2019-06-07T17:45:21.240Z,52.84
2019-06-07T17:46:20.827Z,53.25
2019-06-07T17:47:20.912Z,52.64
2019-06-07T17:48:23.869Z,52.44
2019-06-07T17:49:20.772Z,53.02
2019-06-07T17:50:20.804Z,52.24
2019-06-07T17:51:20.743Z,52.44
2019-06-07T17:52:20.758Z,52.64
2019-06-07T17:53:20.896Z,52.54
2019-06-07T17:54:20.710Z,53.25
2019-06-07T17:55:20.701Z,52.94
2019-06-07T17:56:20.721Z,52.64
2019-06-07T17:57:20.694Z,53.05
2019-06-07T17:58:20.665Z,53.45
2019-06-07T17:59:20.656Z,52.94
2019-06-07T18:00:29.240Z,52.44
2019-06-07T18:01:21.630Z,52.44
2019-06-07T18:02:20.623Z,52.24
2019-06-07T18:03:20.613Z,51.93
2019-06-07T18:04:20.599Z,51.43
2019-06-07T18:05:20.704Z,51.84
2019-06-07T18:06:20.577Z,51.73
2019-06-07T18:07:20.565Z,51.33
2019-06-07T18:08:20.632Z,51.53
2019-06-07T18:09:20.545Z,51.23
2019-06-07T18:10:20.593Z,50.93
2019-06-07T18:11:20.542Z,50.52
2019-06-07T18:12:20.532Z,51.66
2019-06-07T18:13:20.506Z,50.52
2019-06-07T18:14:20.549Z,49.84
2019-06-07T18:15:20.522Z,50.24
2019-06-07T18:16:20.503Z,50.35
2019-06-07T18:17:33.736Z,50.15
2019-06-07T18:18:21.477Z,49.84
2019-06-07T18:19:20.440Z,50.04
2019-06-07T18:20:20.438Z,49.44
2019-06-07T18:21:20.499Z,49.13
2019-06-07T18:22:20.427Z,49.01
2019-06-07T18:23:20.393Z,48.63
2019-06-07T18:24:20.394Z,48.43
2019-06-07T18:25:20.373Z,48.73
2019-06-07T18:26:20.439Z,48.53
2019-06-07T18:27:20.351Z,48.30
2019-06-07T18:28:20.437Z,48.53
2019-06-07T18:29:20.359Z,47.60
